createdAt,value
2018-09-17T00:00:16.152Z,82.1
2018-09-17T00:00:36.341Z,82.1
2018-09-17T00:00:56.556Z,82
2018-09-17T00:01:16.785Z,82
2018-09-17T00:01:37.092Z,82.2
2018-09-17T00:01:57.341Z,82.2
2018-09-17T00:02:17.555Z,81.9
2018-09-17T00:02:37.730Z,82.4
2018-09-17T00:02:58.085Z,82.4
2018-09-17T00:03:18.257Z,82.2
2018-09-17T00:03:38.406Z,82.1
2018-09-17T00:03:58.649Z,82
2018-09-17T00:04:19.001Z,81.9
2018-09-17T00:04:39.187Z,82.1
2018-09-17T00:04:59.431Z,82.1
2018-09-17T00:05:19.690Z,82
2018-09-17T00:05:39.897Z,82.2
2018-09-17T00:06:00.140Z,82
2018-09-17T00:06:20.352Z,82.3
2018-09-17T00:06:40.589Z,82.1
2018-09-17T00:07:00.761Z,81.6
2018-09-17T00:07:21.064Z,81.6
2018-09-17T00:07:41.281Z,82
2018-09-17T00:08:01.492Z,82.2
2018-09-17T00:08:21.747Z,81.7
2018-09-17T00:08:41.981Z,81.5
2018-09-17T00:09:02.186Z,81.8
2018-09-17T00:09:22.406Z,81.6
2018-09-17T00:09:42.806Z,81.8
2018-09-17T00:10:03.084Z,82.2
2018-09-17T00:10:23.325Z,82.1
2018-09-17T00:10:43.607Z,82.3
2018-09-17T00:11:03.865Z,82.2
2018-09-17T00:11:24.097Z,82.3
2018-09-17T00:11:44.392Z,82
2018-09-17T00:12:04.580Z,82
2018-09-17T00:12:24.805Z,82
2018-09-17T00:12:45.068Z,81.7
2018-09-17T00:13:05.267Z,81.9
2018-09-17T00:13:25.457Z,81.9
2018-09-17T00:13:45.652Z,82
2018-09-17T00:14:05.876Z,82.1
2018-09-17T00:14:26.088Z,82
2018-09-17T00:14:46.375Z,82.1
2018-09-17T00:15:06.601Z,82.2
2018-09-17T00:15:26.838Z,82.2
2018-09-17T00:15:47.144Z,82
2018-09-17T00:16:07.417Z,82.2
2018-09-17T00:16:27.624Z,81.8
2018-09-17T00:16:47.834Z,82.7
2018-09-17T00:17:08.092Z,82.5
2018-09-17T00:17:28.397Z,82.6
2018-09-17T00:17:48.642Z,82.7
2018-09-17T00:18:08.911Z,82.5
2018-09-17T00:18:29.180Z,82.6
2018-09-17T00:18:49.389Z,82.8
2018-09-17T00:19:09.605Z,82.5
2018-09-17T00:19:29.867Z,82.2
2018-09-17T00:19:50.137Z,82.4
2018-09-17T00:20:10.341Z,82.5
2018-09-17T00:20:30.571Z,82.6
2018-09-17T00:20:50.796Z,82.6
2018-09-17T00:21:10.950Z,82.3
2018-09-17T00:21:31.160Z,82.9
2018-09-17T00:21:51.500Z,82.9
2018-09-17T00:22:11.693Z,82.8
2018-09-17T00:22:31.907Z,83.3
2018-09-17T00:22:52.114Z,82.9
2018-09-17T00:23:12.487Z,82.4
2018-09-17T00:23:32.703Z,83.2
2018-09-17T00:23:53.008Z,82.8
2018-09-17T00:24:13.340Z,82.3
2018-09-17T00:24:33.559Z,82.4
2018-09-17T00:24:53.763Z,82.5
2018-09-17T00:25:14.048Z,82.3
2018-09-17T00:25:34.232Z,82.2
2018-09-17T00:25:54.464Z,82.5
2018-09-17T00:26:14.700Z,82.7
2018-09-17T00:26:34.922Z,82.5
2018-09-17T00:26:55.120Z,82.3
2018-09-17T00:27:15.337Z,82.2
2018-09-17T00:27:35.531Z,82.2
2018-09-17T00:27:55.719Z,82.4
2018-09-17T00:28:15.944Z,82.2
2018-09-17T00:28:36.247Z,82.4
2018-09-17T00:28:56.521Z,82.4
2018-09-17T00:29:16.677Z,82.2
2018-09-17T00:29:36.947Z,82.4
2018-09-17T00:29:57.101Z,82.3
2018-09-17T00:30:17.315Z,82.5
2018-09-17T00:30:37.519Z,82.5
2018-09-17T00:30:57.735Z,82.6
2018-09-17T00:31:17.924Z,82.3
2018-09-17T00:31:38.060Z,83.1
2018-09-17T00:31:58.221Z,83.3
2018-09-17T00:32:18.454Z,82.6
2018-09-17T00:32:38.657Z,82.6
2018-09-17T00:32:58.821Z,82.2
2018-09-17T00:33:19.017Z,82.5
2018-09-17T00:33:39.269Z,82.5
2018-09-17T00:33:59.537Z,82.4
2018-09-17T00:34:19.819Z,82.2
2018-09-17T00:34:40.019Z,82.7
2018-09-17T00:35:00.288Z,82.7
2018-09-17T00:35:20.478Z,83.1
2018-09-17T00:35:40.743Z,83.1
2018-09-17T00:36:00.914Z,83.5
2018-09-17T00:36:21.150Z,83.4
2018-09-17T00:36:41.431Z,83.3
2018-09-17T00:37:01.657Z,83.4
2018-09-17T00:37:21.878Z,83.4
2018-09-17T00:37:42.140Z,83.3
2018-09-17T00:38:02.375Z,83.3
2018-09-17T00:38:22.572Z,83.3
2018-09-17T00:38:42.915Z,83.1
2018-09-17T00:39:03.131Z,82.7
2018-09-17T00:39:23.328Z,82.7
2018-09-17T00:39:43.556Z,83.2
2018-09-17T00:40:03.717Z,82.4
2018-09-17T00:40:23.937Z,82.6
2018-09-17T00:40:44.229Z,82.4
2018-09-17T00:41:04.433Z,82.5
2018-09-17T00:41:24.648Z,82.3
2018-09-17T00:41:44.832Z,82.2
2018-09-17T00:42:05.014Z,82.2
2018-09-17T00:42:25.266Z,82.4
2018-09-17T00:42:45.518Z,82.3
2018-09-17T00:43:05.736Z,82.4
2018-09-17T00:43:25.966Z,82.4
2018-09-17T00:43:46.171Z,82.4
2018-09-17T00:44:06.357Z,82.5
2018-09-17T00:44:26.612Z,82.6
2018-09-17T00:44:46.863Z,82.8
2018-09-17T00:45:06.995Z,83
2018-09-17T00:45:27.198Z,83.6
2018-09-17T00:45:47.437Z,83.9
2018-09-17T00:46:07.655Z,83.6
2018-09-17T00:46:27.827Z,83.7
2018-09-17T00:46:48.045Z,83.7
2018-09-17T00:47:08.275Z,83.7
2018-09-17T00:47:28.449Z,83.2
2018-09-17T00:47:48.576Z,83.1
2018-09-17T00:48:08.748Z,83.2
2018-09-17T00:48:28.963Z,83.2
2018-09-17T00:48:49.187Z,82.9
2018-09-17T00:49:09.415Z,82.8
2018-09-17T00:49:29.550Z,83.3
2018-09-17T00:49:49.893Z,83.5
2018-09-17T00:50:10.069Z,83.8
2018-09-17T00:50:30.440Z,83.8
2018-09-17T00:50:50.660Z,84
2018-09-17T00:51:10.899Z,84
2018-09-17T00:51:31.125Z,84.1
2018-09-17T00:51:51.307Z,84.3
2018-09-17T00:52:11.508Z,83.6
2018-09-17T00:52:31.738Z,83.6
2018-09-17T00:52:51.950Z,83.7
2018-09-17T00:53:12.159Z,83.4
2018-09-17T00:53:32.353Z,83.9
2018-09-17T00:53:52.919Z,83.6
2018-09-17T00:54:13.088Z,83.3
2018-09-17T00:54:33.411Z,83.4
2018-09-17T00:54:53.637Z,83.2
2018-09-17T00:55:13.858Z,83.5
2018-09-17T00:55:34.084Z,83.8
2018-09-17T00:55:54.419Z,83.5
2018-09-17T00:56:14.649Z,83.7
2018-09-17T00:56:35.153Z,83.6
2018-09-17T00:56:55.360Z,83.8
2018-09-17T00:57:15.549Z,83.7
2018-09-17T00:57:35.908Z,83.7
2018-09-17T00:57:56.229Z,83.7
2018-09-17T00:58:16.406Z,83.6
2018-09-17T00:58:36.614Z,83.5
2018-09-17T00:58:56.958Z,83.9
2018-09-17T00:59:17.128Z,83.8
2018-09-17T00:59:37.370Z,83.6
2018-09-17T00:59:57.559Z,83.7
2018-09-17T01:00:17.808Z,83.6
2018-09-17T01:00:37.975Z,84
2018-09-17T01:00:58.194Z,83.7
2018-09-17T01:01:18.373Z,83.7
2018-09-17T01:01:39.547Z,83.5
2018-09-17T01:02:04.937Z,83.7
2018-09-17T01:02:28.649Z,83.7
2018-09-17T01:02:51.594Z,83.7
2018-09-17T01:03:13.648Z,83.9
2018-09-17T01:03:33.899Z,83.8
2018-09-17T01:03:54.073Z,83.6
2018-09-17T01:04:14.269Z,83.6
2018-09-17T01:04:34.483Z,84.2
2018-09-17T01:04:54.726Z,84.1
2018-09-17T01:05:14.971Z,84.1
2018-09-17T01:05:35.253Z,83.9
2018-09-17T01:05:55.533Z,83.8
2018-09-17T01:06:15.992Z,83.7
2018-09-17T01:06:36.193Z,83.9
2018-09-17T01:06:56.380Z,84.2
2018-09-17T01:07:16.776Z,83.7
2018-09-17T01:07:37.099Z,83.8
2018-09-17T01:07:57.375Z,83.7
2018-09-17T01:08:17.595Z,84
2018-09-17T01:08:37.789Z,84.2
2018-09-17T01:08:58.005Z,83.9
2018-09-17T01:09:18.249Z,83.8
2018-09-17T01:09:38.497Z,84.1
2018-09-17T01:09:58.745Z,84.1
2018-09-17T01:10:18.998Z,84
2018-09-17T01:10:40.726Z,83.5
2018-09-17T01:11:01.340Z,83.7
2018-09-17T01:11:21.837Z,84
2018-09-17T01:11:42.064Z,83.7
2018-09-17T01:12:02.318Z,83.7
2018-09-17T01:12:22.465Z,83.6
2018-09-17T01:12:42.684Z,84
2018-09-17T01:13:02.932Z,84.1
2018-09-17T01:13:23.131Z,83.5
2018-09-17T01:13:43.447Z,83.6
2018-09-17T01:14:03.760Z,83.7
2018-09-17T01:14:24.192Z,83.5
2018-09-17T01:14:44.617Z,83.7
2018-09-17T01:15:04.940Z,83.7
2018-09-17T01:15:25.152Z,83.9
2018-09-17T01:15:45.339Z,84.1
2018-09-17T01:16:05.791Z,83.8
2018-09-17T01:16:26.035Z,83.7
2018-09-17T01:16:46.268Z,84.3
2018-09-17T01:17:06.464Z,84
2018-09-17T01:17:26.874Z,84
2018-09-17T01:17:47.438Z,84.1
2018-09-17T01:18:07.753Z,84.5
2018-09-17T01:18:28.013Z,84.7
2018-09-17T01:18:48.256Z,84.1
2018-09-17T01:19:08.528Z,84.1
2018-09-17T01:19:28.764Z,84
2018-09-17T01:19:49.070Z,84.2
2018-09-17T01:20:09.299Z,83.8
2018-09-17T01:20:29.523Z,83.8
2018-09-17T01:20:49.751Z,83.6
2018-09-17T01:21:09.967Z,83.2
2018-09-17T01:21:30.203Z,83.2
2018-09-17T01:21:50.449Z,83.4
2018-09-17T01:22:10.858Z,83.6
2018-09-17T01:22:31.034Z,83.6
2018-09-17T01:22:51.500Z,83.5
2018-09-17T01:23:11.773Z,83.7
2018-09-17T01:23:32.011Z,83.1
2018-09-17T01:23:52.336Z,83.2
2018-09-17T01:24:12.646Z,83
2018-09-17T01:24:32.828Z,82.8
2018-09-17T01:24:53.056Z,83.4
2018-09-17T01:25:13.236Z,83.2
2018-09-17T01:25:33.388Z,82.9
2018-09-17T01:25:53.537Z,82.7
2018-09-17T01:26:13.825Z,83
2018-09-17T01:26:34.037Z,83.2
2018-09-17T01:26:54.283Z,82.8
2018-09-17T01:27:14.460Z,83.1
2018-09-17T01:27:34.694Z,82.8
2018-09-17T01:27:54.961Z,83.1
2018-09-17T01:28:15.212Z,83.1
2018-09-17T01:28:35.440Z,82.6
2018-09-17T01:28:55.582Z,83
2018-09-17T01:29:15.852Z,83
2018-09-17T01:29:36.073Z,83.1
2018-09-17T01:29:56.309Z,82.9
2018-09-17T01:30:16.534Z,83.4
2018-09-17T01:30:36.825Z,82.8
2018-09-17T01:30:56.957Z,82.7
2018-09-17T01:31:17.265Z,83
2018-09-17T01:31:37.493Z,82.9
2018-09-17T01:31:57.691Z,83.5
2018-09-17T01:32:17.864Z,83.6
2018-09-17T01:32:38.112Z,83.5
2018-09-17T01:32:58.359Z,83.7
2018-09-17T01:33:18.573Z,84.1
2018-09-17T01:33:38.806Z,83.9
2018-09-17T01:33:58.985Z,84
2018-09-17T01:34:19.221Z,83.9
2018-09-17T01:34:39.411Z,83.9
2018-09-17T01:34:59.644Z,83.9
2018-09-17T01:35:19.849Z,83.9
2018-09-17T01:35:40.107Z,84.1
2018-09-17T01:36:00.322Z,84.1
2018-09-17T01:36:20.513Z,84.1
2018-09-17T01:36:40.706Z,83.9
2018-09-17T01:37:00.903Z,84
2018-09-17T01:37:21.127Z,83.9
2018-09-17T01:37:41.350Z,83.7
2018-09-17T01:38:01.551Z,83.8
2018-09-17T01:38:21.795Z,83.8
2018-09-17T01:38:42.016Z,83.7
2018-09-17T01:39:02.244Z,84.1
2018-09-17T01:39:22.465Z,83.9
2018-09-17T01:39:42.648Z,84.2
2018-09-17T01:40:02.895Z,84
2018-09-17T01:40:23.062Z,84.3
2018-09-17T01:40:43.321Z,83.8
2018-09-17T01:41:03.536Z,83.7
2018-09-17T01:41:23.761Z,83.9
2018-09-17T01:41:43.945Z,84.5
2018-09-17T01:42:04.151Z,84.2
2018-09-17T01:42:24.430Z,84
2018-09-17T01:42:44.661Z,84
2018-09-17T01:43:04.834Z,84
2018-09-17T01:43:25.036Z,84
2018-09-17T01:43:45.251Z,84.3
2018-09-17T01:44:05.451Z,83.9
2018-09-17T01:44:25.680Z,83.9
2018-09-17T01:44:45.902Z,84.2
2018-09-17T01:45:06.102Z,84
2018-09-17T01:45:26.342Z,83.7
2018-09-17T01:45:46.560Z,84.3
2018-09-17T01:46:06.722Z,84
2018-09-17T01:46:26.980Z,84
2018-09-17T01:46:47.181Z,84
2018-09-17T01:47:07.416Z,84.7
2018-09-17T01:47:27.653Z,84.7
2018-09-17T01:47:47.914Z,84.6
2018-09-17T01:48:08.141Z,84.9
2018-09-17T01:48:28.353Z,84.7
2018-09-17T01:48:48.530Z,84.7
2018-09-17T01:49:08.705Z,84.9
2018-09-17T01:49:28.878Z,84.2
2018-09-17T01:49:49.078Z,84.1
2018-09-17T01:50:09.284Z,84
2018-09-17T01:50:29.524Z,84.7
2018-09-17T01:50:49.737Z,84.9
2018-09-17T01:51:09.938Z,84.7
2018-09-17T01:51:30.149Z,84.7
2018-09-17T01:51:50.303Z,84.9
2018-09-17T01:52:10.548Z,84.9
2018-09-17T01:52:30.749Z,84.7
2018-09-17T01:52:50.870Z,84
2018-09-17T01:53:11.044Z,84.2
2018-09-17T01:53:31.229Z,84
2018-09-17T01:53:51.414Z,84
2018-09-17T01:54:11.598Z,84.5
2018-09-17T01:54:31.890Z,84.8
2018-09-17T01:54:52.153Z,84.7
2018-09-17T01:55:12.378Z,84.9
2018-09-17T01:55:32.568Z,84.8
2018-09-17T01:55:52.789Z,84.8
2018-09-17T01:56:13.064Z,84.7
2018-09-17T01:56:33.291Z,84.9
2018-09-17T01:56:53.487Z,85.1
2018-09-17T01:57:13.632Z,84.7
2018-09-17T01:57:33.800Z,84.9
2018-09-17T01:57:54.114Z,84.4
2018-09-17T01:58:14.291Z,84.7
2018-09-17T01:58:34.486Z,84.6
2018-09-17T01:58:54.804Z,84.6
2018-09-17T01:59:15.034Z,85.1
2018-09-17T01:59:35.310Z,84.9
2018-09-17T01:59:55.478Z,84.5
2018-09-17T02:00:15.701Z,84.7
2018-09-17T02:00:35.932Z,84.6
2018-09-17T02:00:56.118Z,84.7
2018-09-17T02:01:16.352Z,84.7
2018-09-17T02:01:36.600Z,85.1
2018-09-17T02:01:56.910Z,84.7
2018-09-17T02:02:17.133Z,84.7
2018-09-17T02:02:37.334Z,84.8
2018-09-17T02:02:57.622Z,84.7
2018-09-17T02:03:18.146Z,84.7
2018-09-17T02:03:38.363Z,84.7
2018-09-17T02:03:58.716Z,84.6
2018-09-17T02:04:18.962Z,84.8
2018-09-17T02:04:39.180Z,84.8
2018-09-17T02:04:59.448Z,84.5
2018-09-17T02:05:19.680Z,84.9
2018-09-17T02:05:39.895Z,85.2
2018-09-17T02:06:00.108Z,85.5
2018-09-17T02:06:20.280Z,85.2
2018-09-17T02:06:40.539Z,85.8
2018-09-17T02:07:00.784Z,85
2018-09-17T02:07:20.986Z,85.3
2018-09-17T02:07:41.296Z,85.2
2018-09-17T02:08:01.605Z,84.7
2018-09-17T02:08:21.718Z,84.9
2018-09-17T02:08:42.030Z,84.8
2018-09-17T02:09:02.471Z,85.1
2018-09-17T02:09:22.724Z,84.5
2018-09-17T02:09:43.030Z,85
2018-09-17T02:10:03.276Z,85.2
2018-09-17T02:10:23.481Z,85.6
2018-09-17T02:10:43.698Z,85.1
2018-09-17T02:11:03.908Z,85.1
2018-09-17T02:11:24.228Z,85.1
2018-09-17T02:11:44.462Z,85
2018-09-17T02:12:04.662Z,84.8
2018-09-17T02:12:24.853Z,84.9
2018-09-17T02:12:45.081Z,84.8
2018-09-17T02:13:05.243Z,85.2
2018-09-17T02:13:25.498Z,85
2018-09-17T02:13:45.718Z,85.4
2018-09-17T02:14:06.012Z,85.5
2018-09-17T02:14:26.298Z,85.3
2018-09-17T02:14:46.655Z,85.2
2018-09-17T02:15:06.877Z,84.9
2018-09-17T02:15:27.677Z,85.4
2018-09-17T02:15:47.938Z,85.6
2018-09-17T02:16:08.254Z,85.7
2018-09-17T02:16:28.658Z,85.4
2018-09-17T02:16:49.098Z,84.9
2018-09-17T02:17:09.345Z,85.3
2018-09-17T02:17:30.056Z,85.4
2018-09-17T02:17:50.264Z,85.5
2018-09-17T02:18:10.533Z,85.3
2018-09-17T02:18:30.795Z,85.3
2018-09-17T02:18:51.207Z,85.3
2018-09-17T02:19:11.417Z,85.5
2018-09-17T02:19:31.628Z,85.7
2018-09-17T02:19:51.930Z,86
2018-09-17T02:20:12.171Z,86
2018-09-17T02:20:32.381Z,85.9
2018-09-17T02:20:52.666Z,85.5
2018-09-17T02:21:12.896Z,85.5
2018-09-17T02:21:33.325Z,85.7
2018-09-17T02:21:53.539Z,85.7
2018-09-17T02:22:13.705Z,85.5
2018-09-17T02:22:33.981Z,85.5
2018-09-17T02:22:54.222Z,85.5
2018-09-17T02:23:14.445Z,86.3
2018-09-17T02:23:34.650Z,86.4
2018-09-17T02:23:54.877Z,85.5
2018-09-17T02:24:15.087Z,85.7
2018-09-17T02:24:35.846Z,85.9
2018-09-17T02:24:56.009Z,86
2018-09-17T02:25:16.264Z,85.8
2018-09-17T02:25:36.562Z,85.7
2018-09-17T02:25:56.882Z,85.6
2018-09-17T02:26:17.111Z,85.6
2018-09-17T02:26:37.425Z,85.4
2018-09-17T02:26:57.961Z,85.2
2018-09-17T02:27:18.133Z,85.4
2018-09-17T02:27:38.384Z,85.5
2018-09-17T02:27:58.634Z,85.6
2018-09-17T02:28:18.882Z,85.5
2018-09-17T02:28:39.093Z,85.8
2018-09-17T02:28:59.454Z,85.6
2018-09-17T02:29:19.776Z,85.2
2018-09-17T02:29:40.072Z,85.6
2018-09-17T02:30:00.346Z,85.6
2018-09-17T02:30:20.613Z,85.4
2018-09-17T02:30:40.857Z,85.6
2018-09-17T02:31:01.105Z,85.2
2018-09-17T02:31:21.314Z,85.6
2018-09-17T02:31:41.581Z,85.7
2018-09-17T02:32:01.784Z,86
2018-09-17T02:32:22.013Z,86
2018-09-17T02:32:42.271Z,85.9
2018-09-17T02:33:02.518Z,86.1
2018-09-17T02:33:22.796Z,86.3
2018-09-17T02:33:43.081Z,85.7
2018-09-17T02:34:03.293Z,85.7
2018-09-17T02:34:23.578Z,85.6
2018-09-17T02:34:43.764Z,85.8
2018-09-17T02:35:04.118Z,86.4
2018-09-17T02:35:24.495Z,86.4
2018-09-17T02:35:44.924Z,85.8
2018-09-17T02:36:05.266Z,85.9
2018-09-17T02:36:25.453Z,85.7
2018-09-17T02:36:45.732Z,85.7
2018-09-17T02:37:05.855Z,85.7
2018-09-17T02:37:26.176Z,85.4
2018-09-17T02:37:46.379Z,85.8
2018-09-17T02:38:06.704Z,85.4
2018-09-17T02:38:27.005Z,86.5
2018-09-17T02:38:47.388Z,86.4
2018-09-17T02:39:07.649Z,86.8
2018-09-17T02:39:28.057Z,86.3
2018-09-17T02:39:48.328Z,86.4
2018-09-17T02:40:08.598Z,86.1
2018-09-17T02:40:28.869Z,86.2
2018-09-17T02:40:49.120Z,86.2
2018-09-17T02:41:09.428Z,86.2
2018-09-17T02:41:29.731Z,86.7
2018-09-17T02:41:50.042Z,86.6
2018-09-17T02:42:10.284Z,86.9
2018-09-17T02:42:30.507Z,87.1
2018-09-17T02:42:50.808Z,86.8
2018-09-17T02:43:10.994Z,87.2
2018-09-17T02:43:31.208Z,87.2
2018-09-17T02:43:51.417Z,86.9
2018-09-17T02:44:11.592Z,87
2018-09-17T02:44:31.872Z,87.1
2018-09-17T02:44:52.117Z,86.3
2018-09-17T02:45:12.405Z,86.4
2018-09-17T02:45:32.596Z,86.5
2018-09-17T02:45:52.833Z,86
2018-09-17T02:46:13.053Z,86.3
2018-09-17T02:46:33.300Z,86.8
2018-09-17T02:46:53.518Z,86.7
2018-09-17T02:47:13.739Z,86.4
2018-09-17T02:47:33.943Z,86.9
2018-09-17T02:47:54.121Z,86.6
2018-09-17T02:48:14.377Z,86.4
2018-09-17T02:48:34.548Z,86.9
2018-09-17T02:48:54.737Z,87.1
2018-09-17T02:49:15.000Z,87
2018-09-17T02:49:35.181Z,87
2018-09-17T02:49:55.454Z,86.8
2018-09-17T02:50:15.692Z,87
2018-09-17T02:50:35.909Z,87
2018-09-17T02:50:56.157Z,86.8
2018-09-17T02:51:16.372Z,86.7
2018-09-17T02:51:36.516Z,87
2018-09-17T02:51:56.754Z,87.2
2018-09-17T02:52:16.949Z,87.2
2018-09-17T02:52:37.189Z,87.8
2018-09-17T02:52:57.468Z,87.7
2018-09-17T02:53:17.670Z,87.6
2018-09-17T02:53:37.995Z,87.5
2018-09-17T02:53:58.193Z,87.2
2018-09-17T02:54:18.413Z,86.9
2018-09-17T02:54:38.642Z,87.1
2018-09-17T02:54:58.911Z,86.9
2018-09-17T02:55:19.158Z,87
2018-09-17T02:55:39.355Z,87
2018-09-17T02:55:59.629Z,87
2018-09-17T02:56:19.782Z,86.6
2018-09-17T02:56:40.071Z,86.9
2018-09-17T02:57:00.296Z,86.9
2018-09-17T02:57:20.487Z,87.3
2018-09-17T02:57:40.750Z,87
2018-09-17T02:58:00.978Z,87.1
2018-09-17T02:58:21.186Z,87
2018-09-17T02:58:41.352Z,87.4
2018-09-17T02:59:01.567Z,86.9
2018-09-17T02:59:21.768Z,87.2
2018-09-17T02:59:42.015Z,87.4
2018-09-17T03:00:02.253Z,87.4
2018-09-17T03:00:22.696Z,87
2018-09-17T03:00:42.956Z,87.3
2018-09-17T03:01:03.230Z,86.8
2018-09-17T03:01:23.436Z,87.1
2018-09-17T03:01:43.688Z,87.2
2018-09-17T03:02:03.881Z,87.1
2018-09-17T03:02:24.129Z,86.6
2018-09-17T03:02:44.363Z,87
2018-09-17T03:03:04.582Z,87
2018-09-17T03:03:24.796Z,87.5
2018-09-17T03:03:45.025Z,87.7
2018-09-17T03:04:05.225Z,87.7
2018-09-17T03:04:25.718Z,87
2018-09-17T03:04:45.929Z,87
2018-09-17T03:05:06.115Z,87
2018-09-17T03:05:26.335Z,87.1
2018-09-17T03:05:46.582Z,87
2018-09-17T03:06:06.756Z,87.2
2018-09-17T03:06:26.986Z,87.3
2018-09-17T03:06:47.283Z,87.2
2018-09-17T03:07:07.520Z,87.3
2018-09-17T03:07:27.693Z,86.7
2018-09-17T03:07:47.881Z,86.8
2018-09-17T03:08:08.066Z,86.5
2018-09-17T03:08:28.285Z,86.4
2018-09-17T03:08:48.489Z,86.6
2018-09-17T03:09:08.696Z,87.3
2018-09-17T03:09:29.082Z,87
2018-09-17T03:09:49.270Z,87.1
2018-09-17T03:10:09.464Z,87.1
2018-09-17T03:10:29.664Z,87.4
2018-09-17T03:10:49.875Z,87.8
2018-09-17T03:11:10.076Z,87.6
2018-09-17T03:11:30.239Z,87.6
2018-09-17T03:11:50.467Z,87.5
2018-09-17T03:12:10.705Z,87.4
2018-09-17T03:12:30.965Z,87.9
2018-09-17T03:12:51.196Z,88
2018-09-17T03:13:11.385Z,87.7
2018-09-17T03:13:31.618Z,87.3
2018-09-17T03:13:51.856Z,87.6
2018-09-17T03:14:12.083Z,87.7
2018-09-17T03:14:32.336Z,87.8
2018-09-17T03:14:52.529Z,87.2
2018-09-17T03:15:12.720Z,87
2018-09-17T03:15:32.984Z,86.8
2018-09-17T03:15:53.167Z,87
2018-09-17T03:16:13.450Z,86.9
2018-09-17T03:16:33.694Z,86.8
2018-09-17T03:16:53.879Z,86.9
2018-09-17T03:17:14.130Z,87.5
2018-09-17T03:17:34.347Z,87.6
2018-09-17T03:17:54.582Z,87.6
2018-09-17T03:18:14.922Z,87
2018-09-17T03:18:35.162Z,87.2
2018-09-17T03:18:55.380Z,87.4
2018-09-17T03:19:15.601Z,87.7
2018-09-17T03:19:35.842Z,87.5
2018-09-17T03:19:56.034Z,87.9
2018-09-17T03:20:16.302Z,88.1
2018-09-17T03:20:36.472Z,88.6
2018-09-17T03:20:56.648Z,88.7
2018-09-17T03:21:16.834Z,88.5
2018-09-17T03:21:37.031Z,88.6
2018-09-17T03:21:57.254Z,88.5
2018-09-17T03:22:17.432Z,88.2
2018-09-17T03:22:37.715Z,88.1
2018-09-17T03:22:57.979Z,88.1
2018-09-17T03:23:18.221Z,87.9
2018-09-17T03:23:38.410Z,88.8
2018-09-17T03:23:58.622Z,88.6
2018-09-17T03:24:18.972Z,88.6
2018-09-17T03:24:39.338Z,88.6
2018-09-17T03:24:59.483Z,88.5
2018-09-17T03:25:19.679Z,88.4
2018-09-17T03:25:39.886Z,88.2
2018-09-17T03:26:00.086Z,87.4
2018-09-17T03:26:20.266Z,87.6
2018-09-17T03:26:40.504Z,87.2
2018-09-17T03:27:00.751Z,87.1
2018-09-17T03:27:20.941Z,86.6
2018-09-17T03:27:41.145Z,86.4
2018-09-17T03:28:01.360Z,86.6
2018-09-17T03:28:21.613Z,86.6
2018-09-17T03:28:41.858Z,87.2
2018-09-17T03:29:02.043Z,87
2018-09-17T03:29:22.318Z,86.8
2018-09-17T03:29:42.573Z,87.2
2018-09-17T03:30:02.795Z,87.2
2018-09-17T03:30:23.170Z,87.1
2018-09-17T03:30:43.387Z,87.2
2018-09-17T03:31:03.608Z,87.2
2018-09-17T03:31:23.920Z,87.8
2018-09-17T03:31:44.128Z,87.1
2018-09-17T03:32:04.328Z,86.9
2018-09-17T03:32:24.530Z,87.1
2018-09-17T03:32:44.882Z,87
2018-09-17T03:33:05.048Z,87.6
2018-09-17T03:33:25.253Z,87.3
2018-09-17T03:33:45.546Z,88
2018-09-17T03:34:05.775Z,88.2
2018-09-17T03:34:26.060Z,87.9
2018-09-17T03:34:46.286Z,88
2018-09-17T03:35:06.577Z,88
2018-09-17T03:35:26.987Z,88
2018-09-17T03:35:47.520Z,88.7
2018-09-17T03:36:07.702Z,88.2
2018-09-17T03:36:27.930Z,88.2
2018-09-17T03:36:48.128Z,88.3
2018-09-17T03:37:08.304Z,88.2
2018-09-17T03:37:28.504Z,87.8
2018-09-17T03:37:48.714Z,87.8
2018-09-17T03:38:09.499Z,87.8
2018-09-17T03:38:29.703Z,87.3
2018-09-17T03:38:49.854Z,87.2
2018-09-17T03:39:10.005Z,86.9
2018-09-17T03:39:30.248Z,86.7
2018-09-17T03:39:50.463Z,87.5
2018-09-17T03:40:10.754Z,87.2
2018-09-17T03:40:31.056Z,87.5
2018-09-17T03:40:51.335Z,87.4
2018-09-17T03:41:11.622Z,87.4
2018-09-17T03:41:31.798Z,87.3
2018-09-17T03:41:52.003Z,87.5
2018-09-17T03:42:12.246Z,87.4
2018-09-17T03:42:32.406Z,87.7
2018-09-17T03:42:52.628Z,88.6
2018-09-17T03:43:12.888Z,88.3
2018-09-17T03:43:33.097Z,88.2
2018-09-17T03:43:53.315Z,88
2018-09-17T03:44:13.522Z,88.1
2018-09-17T03:44:33.758Z,88
2018-09-17T03:44:54.003Z,87.7
2018-09-17T03:45:14.257Z,88
2018-09-17T03:45:34.530Z,88.1
2018-09-17T03:45:54.746Z,87.8
2018-09-17T03:46:15.030Z,88
2018-09-17T03:46:35.267Z,87.8
2018-09-17T03:46:55.596Z,88.6
2018-09-17T03:47:15.874Z,88.5
2018-09-17T03:47:36.129Z,88.5
2018-09-17T03:47:56.393Z,88.5
2018-09-17T03:48:16.602Z,88.6
2018-09-17T03:48:36.808Z,88.7
2018-09-17T03:48:56.968Z,87.9
2018-09-17T03:49:17.125Z,88.5
2018-09-17T03:49:37.381Z,88.3
2018-09-17T03:49:57.607Z,88.5
2018-09-17T03:50:17.800Z,88.2
2018-09-17T03:50:37.990Z,88.3
2018-09-17T03:50:58.207Z,88.5
2018-09-17T03:51:18.377Z,88.9
2018-09-17T03:51:38.554Z,88.9
2018-09-17T03:51:58.719Z,88.9
2018-09-17T03:52:18.902Z,88.8
2018-09-17T03:52:39.150Z,88.9
2018-09-17T03:52:59.330Z,88.3
2018-09-17T03:53:19.567Z,88.4
2018-09-17T03:53:39.760Z,88.6
2018-09-17T03:53:59.975Z,88.1
2018-09-17T03:54:20.242Z,88.3
2018-09-17T03:54:40.459Z,88.1
2018-09-17T03:55:00.736Z,88.4
2018-09-17T03:55:21.063Z,88.6
2018-09-17T03:55:41.234Z,88.9
2018-09-17T03:56:01.526Z,88.3
2018-09-17T03:56:21.779Z,88.3
2018-09-17T03:56:41.992Z,89.1
2018-09-17T03:57:02.209Z,88.7
2018-09-17T03:57:22.420Z,88.8
2018-09-17T03:57:42.647Z,88.9
2018-09-17T03:58:02.925Z,89.2
2018-09-17T03:58:23.131Z,89.5
2018-09-17T03:58:43.358Z,89
2018-09-17T03:59:03.599Z,89.1
2018-09-17T03:59:23.795Z,88.9
2018-09-17T03:59:43.978Z,88.6
2018-09-17T04:00:04.280Z,89.1
2018-09-17T04:00:24.474Z,88.3
2018-09-17T04:00:44.734Z,88.3
2018-09-17T04:01:05.014Z,88.3
2018-09-17T04:01:25.242Z,88.7
2018-09-17T04:01:45.560Z,89
2018-09-17T04:02:05.812Z,88.9
2018-09-17T04:02:25.990Z,89
2018-09-17T04:02:46.236Z,88.9
2018-09-17T04:03:06.484Z,89.4
2018-09-17T04:03:26.716Z,88.9
2018-09-17T04:03:46.912Z,88.9
2018-09-17T04:04:07.166Z,88.9
2018-09-17T04:04:27.337Z,88.4
2018-09-17T04:04:47.572Z,88.3
2018-09-17T04:05:07.826Z,88.5
2018-09-17T04:05:28.074Z,88.4
2018-09-17T04:05:48.315Z,88.3
2018-09-17T04:06:08.617Z,87.8
2018-09-17T04:06:28.952Z,88.1
2018-09-17T04:06:49.179Z,88.6
2018-09-17T04:07:09.438Z,88.3
2018-09-17T04:07:29.638Z,88.5
2018-09-17T04:07:49.925Z,88
2018-09-17T04:08:10.212Z,87.9
2018-09-17T04:08:30.395Z,88.1
2018-09-17T04:08:50.690Z,88.2
2018-09-17T04:09:10.893Z,87.8
2018-09-17T04:09:31.036Z,87.9
2018-09-17T04:09:51.284Z,87.8
2018-09-17T04:10:11.505Z,88.4
2018-09-17T04:10:31.732Z,88.3
2018-09-17T04:10:51.939Z,88.5
2018-09-17T04:11:12.162Z,88.5
2018-09-17T04:11:32.383Z,88.5
2018-09-17T04:11:52.616Z,88.3
2018-09-17T04:12:12.821Z,89.2
2018-09-17T04:12:33.151Z,88.8
2018-09-17T04:12:53.366Z,88.9
2018-09-17T04:13:13.585Z,88.8
2018-09-17T04:13:33.817Z,89
2018-09-17T04:13:54.002Z,88.6
2018-09-17T04:14:14.275Z,88.5
2018-09-17T04:14:34.496Z,88.5
2018-09-17T04:14:54.737Z,88.3
2018-09-17T04:15:15.008Z,88.5
2018-09-17T04:15:35.229Z,88.5
2018-09-17T04:15:55.440Z,88.6
2018-09-17T04:16:15.652Z,89.1
2018-09-17T04:16:35.924Z,88.9
2018-09-17T04:16:56.209Z,89.2
2018-09-17T04:17:16.468Z,88.8
2018-09-17T04:17:36.696Z,89.3
2018-09-17T04:17:56.895Z,89.1
2018-09-17T04:18:17.136Z,88.8
2018-09-17T04:18:37.382Z,89
2018-09-17T04:18:57.588Z,88.7
2018-09-17T04:19:17.887Z,88.9
2018-09-17T04:19:38.131Z,89.1
2018-09-17T04:19:58.401Z,88.9
2018-09-17T04:20:18.664Z,88.9
2018-09-17T04:20:38.925Z,88.3
2018-09-17T04:20:59.144Z,88.3
2018-09-17T04:21:19.385Z,89.2
2018-09-17T04:21:39.566Z,88.4
2018-09-17T04:21:59.758Z,88.2
2018-09-17T04:22:19.943Z,88.4
2018-09-17T04:22:40.126Z,88.3
2018-09-17T04:23:00.286Z,88.3
2018-09-17T04:23:20.443Z,88.4
2018-09-17T04:23:40.631Z,88.6
2018-09-17T04:24:00.832Z,89.1
2018-09-17T04:24:21.076Z,89.1
2018-09-17T04:24:41.305Z,89
2018-09-17T04:25:01.550Z,89.1
2018-09-17T04:25:21.754Z,88.9
2018-09-17T04:25:42.012Z,88.9
2018-09-17T04:26:02.219Z,88.3
2018-09-17T04:26:22.423Z,88.3
2018-09-17T04:26:42.592Z,88.5
2018-09-17T04:27:02.819Z,88.2
2018-09-17T04:27:23.098Z,88.4
2018-09-17T04:27:43.442Z,88.5
2018-09-17T04:28:03.711Z,88.3
2018-09-17T04:28:23.975Z,89.1
2018-09-17T04:28:44.220Z,89.1
2018-09-17T04:29:04.426Z,89.1
2018-09-17T04:29:24.644Z,88.3
2018-09-17T04:29:44.883Z,89.1
2018-09-17T04:30:05.094Z,89
2018-09-17T04:30:25.369Z,89
2018-09-17T04:30:45.670Z,88.8
2018-09-17T04:31:05.921Z,89
2018-09-17T04:31:26.136Z,89.1
2018-09-17T04:31:46.393Z,88.3